Time;durP1;ratioP1;P1;durP2;ratioP2;P2;SDS_P1;SDS_P2;PMS_P1;PMS_P2;Temp;Humidity;BMP_temperature;BMP_pressure;BME280_temperature;BME280_humidity;BME280_pressure;Samples;Min_cycle;Max_cycle;Signal;HPM_P1;HPM_P2
2020/12/29 00:01:50;;;;;;;20.13;2.75;;;;;;;6.40;100.00;98759.09;5071044;28;20048;-64
2020/12/29 00:04:20;;;;;;;19.90;3.85;;;;;;;6.40;100.00;98765.34;5070897;28;20040;-64
2020/12/29 00:06:56;;;;;;;17.20;3.75;;;;;;;6.40;100.00;98764.50;5070830;28;20067;-64
2020/12/29 00:09:24;;;;;;;16.08;3.75;;;;;;;6.40;100.00;98769.94;5070857;28;20132;-64
2020/12/29 00:11:51;;;;;;;17.80;3.13;;;;;;;6.40;100.00;98772.66;5070815;28;20047;-64
2020/12/29 00:14:17;;;;;;;17.80;2.75;;;;;;;6.40;100.00;98765.34;5070721;28;20386;-67
2020/12/29 00:16:44;;;;;;;11.88;2.10;;;;;;;6.40;100.00;98767.22;5070818;28;20047;-72
2020/12/29 00:19:14;;;;;;;15.45;3.55;;;;;;;6.39;100.00;98779.16;5070587;28;20029;-64
2020/12/29 00:21:40;;;;;;;15.25;3.15;;;;;;;6.38;100.00;98782.94;5070513;28;20101;-65
2020/12/29 00:24:07;;;;;;;20.58;4.47;;;;;;;6.37;100.00;98773.19;5070237;28;20411;-66
2020/12/29 00:26:33;;;;;;;18.58;3.05;;;;;;;6.40;100.00;98780.78;5070724;28;20041;-65
2020/12/29 00:28:58;;;;;;;13.60;3.30;;;;;;;6.40;100.00;98792.44;5052560;28;20049;-64
2020/12/29 00:31:24;;;;;;;17.13;3.13;;;;;;;6.41;100.00;98791.38;5070837;28;20078;-64
2020/12/29 00:33:52;;;;;;;23.73;3.80;;;;;;;6.43;100.00;98796.53;5070632;28;20373;-64
2020/12/29 00:36:18;;;;;;;28.20;3.70;;;;;;;6.44;100.00;98809.03;5070560;28;20028;-65
2020/12/29 00:38:44;;;;;;;21.23;3.67;;;;;;;6.44;100.00;98809.03;5070435;28;20050;-64
2020/12/29 00:41:11;;;;;;;28.55;4.03;;;;;;;6.46;100.00;98804.16;5070648;28;20097;-65
2020/12/29 00:43:39;;;;;;;26.10;4.18;;;;;;;6.45;100.00;98813.38;5070473;28;20043;-64
2020/12/29 00:46:06;;;;;;;33.42;4.53;;;;;;;6.45;100.00;98807.94;5070538;28;20108;-65
2020/12/29 00:48:32;;;;;;;22.50;4.30;;;;;;;6.43;100.00;98812.81;5070495;28;20040;-64
2020/12/29 00:51:09;;;;;;;20.88;3.75;;;;;;;6.43;100.00;98807.41;5070533;28;20460;-64
2020/12/29 00:53:35;;;;;;;26.83;3.47;;;;;;;6.43;100.00;98812.81;5070386;28;20123;-64
2020/12/29 00:56:07;;;;;;;23.30;3.78;;;;;;;6.40;100.00;98808.72;5070488;28;20118;-64
2020/12/29 00:58:33;;;;;;;29.75;4.47;;;;;;;6.40;100.00;98818.75;5070293;28;20067;-64
2020/12/29 01:00:59;;;;;;;22.13;3.75;;;;;;;6.39;100.00;98817.09;5070315;28;20072;-63
2020/12/29 01:03:25;;;;;;;24.73;4.60;;;;;;;6.38;100.00;98824.44;5070434;28;20197;-64
2020/12/29 01:05:52;;;;;;;27.48;4.03;;;;;;;6.35;100.00;98809.50;5070315;28;20117;-63
2020/12/29 01:08:18;;;;;;;25.30;3.28;;;;;;;6.34;100.00;98820.63;5070194;28;20041;-64
2020/12/29 01:10:45;;;;;;;26.20;4.00;;;;;;;6.29;100.00;98813.28;5070320;28;20043;-65
2020/12/29 01:13:12;;;;;;;18.55;4.05;;;;;;;6.24;100.00;98805.13;5052139;28;20044;-64
2020/12/29 01:15:38;;;;;;;22.33;3.75;;;;;;;6.22;100.00;98818.13;5070265;28;20052;-64
2020/12/29 01:18:04;;;;;;;21.80;3.90;;;;;;;6.20;100.00;98820.28;5070141;28;20040;-65
2020/12/29 01:20:29;;;;;;;18.73;4.40;;;;;;;6.17;100.00;98826.22;5070172;28;20036;-64
2020/12/29 01:22:55;;;;;;;17.60;3.35;;;;;;;6.15;100.00;98822.97;5069977;28;20090;-63
2020/12/29 01:25:21;;;;;;;18.30;3.75;;;;;;;6.14;100.00;98829.47;5070031;28;20056;-64
2020/12/29 01:27:47;;;;;;;24.10;3.97;;;;;;;6.14;100.00;98832.19;5072648;28;20033;-64
2020/12/29 01:30:13;;;;;;;20.58;3.13;;;;;;;6.15;100.00;98822.97;5073634;28;20398;-64
2020/12/29 01:32:40;;;;;;;17.75;2.67;;;;;;;6.14;100.00;98829.47;5055669;28;20047;-64
2020/12/29 01:35:06;;;;;;;16.25;3.47;;;;;;;6.14;100.00;98821.34;5073616;28;20067;-63
2020/12/29 01:37:33;;;;;;;14.77;2.85;;;;;;;6.15;100.00;98833.00;5073686;28;20037;-63
2020/12/29 01:39:59;;;;;;;20.10;3.53;;;;;;;6.15;100.00;98822.97;5073409;28;20036;-63
2020/12/29 01:42:25;;;;;;;24.02;3.75;;;;;;;6.17;100.00;98831.66;5073515;28;20046;-64
2020/12/29 01:44:50;;;;;;;16.35;2.95;;;;;;;6.20;100.00;98825.69;5073374;28;20043;-63
2020/12/29 01:47:17;;;;;;;15.02;2.80;;;;;;;6.20;100.00;98831.13;5073614;28;20146;-64
2020/12/29 01:49:44;;;;;;;14.70;2.67;;;;;;;6.22;100.00;98839.81;5073214;28;20530;-65
2020/12/29 01:52:09;;;;;;;20.13;2.83;;;;;;;6.23;100.00;98846.03;5073416;28;20040;-63
2020/12/29 01:54:35;;;;;;;18.77;2.80;;;;;;;6.24;100.00;98847.66;5073336;28;20040;-64
2020/12/29 01:57:01;;;;;;;16.83;3.20;;;;;;;6.23;100.00;98846.84;5073281;28;20042;-64
2020/12/29 01:59:26;;;;;;;20.40;3.70;;;;;;;6.20;100.00;98858.22;5073540;28;20040;-64
2020/12/29 02:01:53;;;;;;;20.65;2.97;;;;;;;6.16;100.00;98850.88;5073421;28;20047;-64
2020/12/29 02:04:19;;;;;;;15.25;2.10;;;;;;;6.11;100.00;98848.16;5073100;28;20067;-64
2020/12/29 02:06:45;;;;;;;20.80;2.50;;;;;;;6.05;100.00;98853.53;5055047;28;20511;-64
2020/12/29 02:09:12;;;;;;;12.68;2.22;;;;;;;6.00;100.00;98847.25;5073052;28;20470;-63
2020/12/29 02:11:38;;;;;;;21.42;2.75;;;;;;;5.97;100.00;98853.22;5073040;28;20036;-65
2020/12/29 02:14:05;;;;;;;14.07;2.67;;;;;;;5.95;100.00;98866.19;5072871;28;20443;-63
2020/12/29 02:16:38;;;;;;;15.75;2.40;;;;;;;5.91;100.00;98862.38;5072942;28;20029;-64
2020/12/29 02:19:05;;;;;;;14.13;2.10;;;;;;;5.89;100.00;98867.19;5072698;28;20059;-64
2020/12/29 02:21:37;;;;;;;9.63;1.73;;;;;;;5.89;100.00;98872.63;5020595;28;20072;-64
2020/12/29 02:24:04;;;;;;;15.30;2.90;;;;;;;5.88;100.00;98879.91;5072515;28;20143;-64
2020/12/29 02:26:32;;;;;;;12.25;2.13;;;;;;;5.88;100.00;98882.63;5072728;28;20094;-64
2020/12/29 02:29:05;;;;;;;15.93;2.40;;;;;;;5.90;100.00;98896.78;5072477;28;20045;-65
2020/12/29 02:31:31;;;;;;;12.05;2.00;;;;;;;5.92;100.00;98899.25;5072794;28;20105;-63
2020/12/29 02:33:57;;;;;;;14.10;2.83;;;;;;;5.92;100.00;98888.41;5072596;28;20035;-64
2020/12/29 02:36:23;;;;;;;12.18;2.72;;;;;;;5.94;100.00;98897.09;5072505;28;20040;-63
2020/12/29 02:38:49;;;;;;;19.13;2.53;;;;;;;5.97;100.00;98885.72;5072244;28;20456;-64
2020/12/29 02:41:17;;;;;;;10.77;1.65;;;;;;;5.99;100.00;98897.94;5072486;28;20032;-64
2020/12/29 02:43:45;;;;;;;8.98;2.20;;;;;;;6.02;100.00;98902.00;5072369;28;20101;-63
2020/12/29 02:46:12;;;;;;;16.10;2.05;;;;;;;6.04;100.00;98902.56;5054408;28;20055;-63
2020/12/29 02:48:38;;;;;;;19.80;1.67;;;;;;;6.05;100.00;98909.59;5072447;28;20043;-64
2020/12/29 02:51:03;;;;;;;20.13;2.33;;;;;;;6.08;100.00;98897.47;5072295;28;20033;-64
2020/12/29 02:53:29;;;;;;;11.93;1.90;;;;;;;6.10;100.00;98914.28;5072079;28;20041;-63
2020/12/29 02:55:54;;;;;;;8.32;1.60;;;;;;;6.11;100.00;98913.19;5072080;28;20131;-63
2020/12/29 02:58:20;;;;;;;10.55;1.55;;;;;;;6.12;100.00;98915.63;5072059;28;20040;-64
2020/12/29 03:00:45;;;;;;;10.68;2.25;;;;;;;6.09;100.00;98913.47;5071941;28;20151;-63
2020/12/29 03:03:11;;;;;;;9.32;1.20;;;;;;;6.09;100.00;98913.47;5071893;28;20035;-63
2020/12/29 03:05:36;;;;;;;7.00;1.20;;;;;;;6.09;100.00;98910.75;5071976;28;20127;-64
2020/12/29 03:08:02;;;;;;;8.90;1.45;;;;;;;6.08;100.00;98914.53;5071878;28;20044;-64
2020/12/29 03:10:28;;;;;;;9.25;1.00;;;;;;;6.05;100.00;98904.19;5071628;28;20105;-63
2020/12/29 03:12:53;;;;;;;10.30;1.90;;;;;;;6.04;100.00;98918.81;5071988;28;20036;-63
2020/12/29 03:15:19;;;;;;;4.72;1.67;;;;;;;6.01;100.00;98903.09;5053924;28;20036;-64
2020/12/29 03:17:44;;;;;;;10.32;1.80;;;;;;;5.98;100.00;98917.16;5071619;28;20402;-65
2020/12/29 03:20:10;;;;;;;10.80;1.45;;;;;;;5.96;100.00;98911.19;5071437;28;20037;-63
2020/12/29 03:22:35;;;;;;;10.15;1.38;;;;;;;5.94;100.00;98918.75;5072135;28;20466;-64
2020/12/29 03:25:01;;;;;;;9.70;2.38;;;;;;;5.93;100.00;98911.72;5071232;28;20510;-64
2020/12/29 03:27:26;;;;;;;8.18;1.30;;;;;;;5.93;100.00;98917.13;5071407;28;20040;-64
2020/12/29 03:29:52;;;;;;;9.88;1.40;;;;;;;5.95;100.00;98925.81;5071465;28;20040;-63
2020/12/29 03:32:17;;;;;;;10.90;2.60;;;;;;;5.97;100.00;98918.22;5071516;28;20048;-63
2020/12/29 03:34:43;;;;;;;5.90;1.13;;;;;;;5.98;100.00;98925.28;5071711;28;20047;-64
2020/12/29 03:37:10;;;;;;;13.90;1.50;;;;;;;5.98;100.00;98926.09;5053332;28;20127;-64
2020/12/29 03:39:37;;;;;;;8.65;1.00;;;;;;;5.99;100.00;98932.34;5071311;28;20473;-64
2020/12/29 03:42:04;;;;;;;6.75;1.20;;;;;;;6.01;100.00;98941.03;5071393;28;20040;-65
2020/12/29 03:44:29;;;;;;;9.95;1.58;;;;;;;6.04;100.00;98941.31;5071191;28;20102;-64
2020/12/29 03:46:55;;;;;;;9.02;1.77;;;;;;;6.04;100.00;98940.50;5071231;28;20036;-63
2020/12/29 03:49:21;;;;;;;11.57;1.85;;;;;;;6.05;100.00;98936.72;5070614;28;20478;-63
2020/12/29 03:51:46;;;;;;;7.65;1.35;;;;;;;6.03;100.00;98933.44;5071054;28;20056;-63
2020/12/29 03:54:12;;;;;;;11.98;1.52;;;;;;;6.03;100.00;98928.03;5071089;28;20066;-63
2020/12/29 03:56:38;;;;;;;8.00;1.20;;;;;;;5.98;100.00;98922.56;5071094;28;20147;-64
2020/12/29 03:59:04;;;;;;;10.85;1.48;;;;;;;5.92;100.00;98916.31;5070790;28;20045;-63
2020/12/29 04:01:29;;;;;;;11.80;1.52;;;;;;;5.87;100.00;98918.09;5071036;28;20047;-64
2020/12/29 04:03:55;;;;;;;9.02;1.52;;;;;;;5.82;100.00;98910.75;5071048;28;20040;-64
2020/12/29 04:06:20;;;;;;;8.52;1.25;;;;;;;5.79;100.00;98921.31;5070915;28;20102;-63
2020/12/29 04:08:46;;;;;;;11.88;1.85;;;;;;;5.74;100.00;98931.03;5070696;28;20074;-64
2020/12/29 04:11:12;;;;;;;13.75;2.13;;;;;;;5.72;100.00;98937.75;5071000;28;20029;-64
2020/12/29 04:13:39;;;;;;;5.60;1.30;;;;;;;5.71;100.00;98947.75;5070960;28;20453;-64
2020/12/29 04:16:04;;;;;;;9.40;1.95;;;;;;;5.70;100.00;98937.19;5070827;28;20029;-63
2020/12/29 04:18:30;;;;;;;7.82;1.48;;;;;;;5.68;100.00;98937.44;5070781;28;20046;-65
2020/12/29 04:20:55;;;;;;;8.38;1.50;;;;;;;5.67;100.00;98941.25;5070822;28;20067;-64
2020/12/29 04:23:21;;;;;;;7.32;1.40;;;;;;;5.67;100.00;98935.00;5070650;28;20040;-65
2020/12/29 04:25:47;;;;;;;9.63;1.00;;;;;;;5.63;100.00;98945.53;5070458;28;20105;-64
2020/12/29 04:28:12;;;;;;;7.38;1.23;;;;;;;5.61;100.00;98931.44;5070952;28;20041;-65
2020/12/29 04:30:38;;;;;;;7.82;1.48;;;;;;;5.59;100.00;98939.00;5070749;28;20036;-63
2020/12/29 04:33:03;;;;;;;12.25;1.17;;;;;;;5.58;100.00;98937.38;5070631;28;20426;-64
2020/12/29 04:35:29;;;;;;;4.25;1.13;;;;;;;5.59;100.00;98928.19;5070685;28;20032;-63
2020/12/29 04:37:54;;;;;;;5.93;0.73;;;;;;;5.59;100.00;98930.88;5070648;28;20040;-64
2020/12/29 04:40:20;;;;;;;7.07;1.50;;;;;;;5.63;100.00;98928.47;5052422;28;20466;-64
2020/12/29 04:42:46;;;;;;;3.45;0.60;;;;;;;5.66;100.00;98928.78;5070559;28;20538;-64
2020/12/29 04:45:12;;;;;;;9.32;1.35;;;;;;;5.73;100.00;98923.97;5052724;28;20094;-64
2020/12/29 04:47:39;;;;;;;4.28;1.02;;;;;;;5.80;100.00;98915.63;5070439;28;20032;-63
2020/12/29 04:50:05;;;;;;;6.53;1.10;;;;;;;5.87;100.00;98928.94;5070411;28;20117;-63
2020/12/29 04:52:31;;;;;;;3.95;1.05;;;;;;;5.89;100.00;98930.31;5070604;28;20037;-63
2020/12/29 04:54:56;;;;;;;11.23;1.95;;;;;;;5.90;100.00;98923.03;5070432;28;20497;-64
2020/12/29 04:57:25;;;;;;;11.98;1.15;;;;;;;5.89;100.00;98932.22;5070422;28;20171;-64
2020/12/29 04:59:51;;;;;;;10.60;1.40;;;;;;;5.87;100.00;98945.19;5070337;28;20036;-64
2020/12/29 05:02:17;;;;;;;9.85;1.17;;;;;;;5.84;100.00;98934.88;5072215;28;20032;-64
2020/12/29 05:04:43;;;;;;;8.98;1.73;;;;;;;5.82;100.00;98940.56;5074185;28;20564;-63
2020/12/29 05:07:08;;;;;;;10.48;1.15;;;;;;;5.78;100.00;98946.75;5056526;28;20044;-64
2020/12/29 05:09:34;;;;;;;11.20;1.60;;;;;;;5.73;100.00;98953.78;5074084;28;20040;-64
2020/12/29 05:12:00;;;;;;;6.45;0.98;;;;;;;5.69;100.00;98955.34;5074026;28;20036;-63
2020/12/29 05:14:28;;;;;;;8.02;1.33;;;;;;;5.66;100.00;98952.34;5073953;28;20055;-65
2020/12/29 05:16:55;;;;;;;6.45;0.93;;;;;;;5.64;100.00;98951.78;5074156;28;20043;-63
2020/12/29 05:19:23;;;;;;;11.10;1.98;;;;;;;5.63;100.00;98960.97;5073710;28;20052;-64
2020/12/29 05:21:49;;;;;;;10.88;1.80;;;;;;;5.64;100.00;98968.03;5073807;28;20041;-64
2020/12/29 05:24:20;;;;;;;11.23;1.33;;;;;;;5.63;100.00;98972.63;5073705;28;20108;-64
2020/12/29 05:26:50;;;;;;;6.10;1.65;;;;;;;5.67;100.00;98962.91;5073893;28;20041;-63
2020/12/29 05:29:16;;;;;;;10.60;1.50;;;;;;;5.69;100.00;98966.16;5073653;28;20082;-64
2020/12/29 05:31:44;;;;;;;14.88;2.28;;;;;;;5.69;100.00;98968.88;5073768;28;20048;-63
2020/12/29 05:34:26;;;;;;;11.23;1.23;;;;;;;5.71;100.00;98969.44;5073739;28;20041;-64
2020/12/29 05:36:53;;;;;;;8.07;1.83;;;;;;;5.71;100.00;98969.44;5073708;28;20064;-64
2020/12/29 05:39:21;;;;;;;12.18;1.48;;;;;;;5.74;100.00;98976.25;5073341;28;20479;-64
2020/12/29 05:41:48;;;;;;;8.38;1.15;;;;;;;5.75;100.00;98972.47;5073636;28;20036;-63
2020/12/29 05:44:26;;;;;;;10.05;0.80;;;;;;;5.77;100.00;98977.63;5073449;28;20043;-63
2020/12/29 05:46:56;;;;;;;14.35;1.15;;;;;;;5.78;100.00;98969.25;5073419;28;20123;-65
2020/12/29 05:49:23;;;;;;;7.75;1.63;;;;;;;5.78;100.00;98963.00;5073462;28;20025;-64
2020/12/29 05:51:52;;;;;;;6.20;0.90;;;;;;;5.78;100.00;98973.84;5073320;28;20037;-65
2020/12/29 05:54:19;;;;;;;6.90;1.10;;;;;;;5.77;100.00;98972.22;5073241;28;20040;-64
2020/12/29 05:56:45;;;;;;;3.58;0.88;;;;;;;5.78;100.00;98980.06;5073362;28;20460;-65
2020/12/29 05:59:14;;;;;;;6.05;0.85;;;;;;;5.80;100.00;98993.38;5073656;28;20048;-64
2020/12/29 06:01:46;;;;;;;5.55;0.90;;;;;;;5.81;100.00;98989.59;5073171;28;20059;-64
2020/12/29 06:04:12;;;;;;;5.93;0.80;;;;;;;5.82;100.00;98988.50;5073132;28;20036;-64
2020/12/29 06:06:39;;;;;;;5.80;0.70;;;;;;;5.82;100.00;98991.22;5073233;28;20040;-65
2020/12/29 06:09:08;;;;;;;10.07;0.93;;;;;;;5.81;100.00;98997.72;5072873;28;20482;-65
2020/12/29 06:12:01;;;;;;;5.78;1.10;;;;;;;5.79;100.00;99003.38;5072960;28;20032;-65
2020/12/29 06:14:27;;;;;;;6.63;0.65;;;;;;;5.80;100.00;99009.63;5072308;28;20558;-63
2020/12/29 06:16:54;;;;;;;6.25;1.00;;;;;;;5.81;100.00;99005.84;5072988;28;20147;-64
2020/12/29 06:19:23;;;;;;;6.60;1.23;;;;;;;5.82;100.00;98992.03;5072650;28;20082;-64
2020/12/29 06:22:11;;;;;;;4.97;0.88;;;;;;;5.79;100.00;99006.09;5072967;28;20375;-64
2020/12/29 06:24:41;;;;;;;6.82;1.25;;;;;;;5.80;100.00;99004.19;5072464;28;20129;-64
2020/12/29 06:27:09;;;;;;;5.35;1.00;;;;;;;5.77;100.00;99010.13;5072742;28;20086;-63
2020/12/29 06:29:39;;;;;;;4.25;1.48;;;;;;;5.75;100.00;99019.34;5072717;28;20036;-64
2020/12/29 06:32:25;;;;;;;6.97;0.95;;;;;;;5.71;100.00;99007.34;5072705;28;20055;-64
2020/12/29 06:34:50;;;;;;;7.93;1.05;;;;;;;5.69;100.00;99014.91;5072377;28;20387;-63
2020/12/29 06:37:31;;;;;;;6.53;1.52;;;;;;;5.66;100.00;99026.25;5072500;28;20058;-65
2020/12/29 06:40:03;;;;;;;7.40;0.90;;;;;;;5.64;100.00;99028.41;5072410;28;20046;-64
2020/12/29 06:42:29;;;;;;;7.50;1.45;;;;;;;5.62;100.00;99025.16;5072399;28;20070;-64
2020/12/29 06:44:59;;;;;;;7.70;1.35;;;;;;;5.62;100.00;99030.56;5072366;28;20036;-64
2020/12/29 06:47:27;;;;;;;13.48;1.27;;;;;;;5.63;100.00;99034.09;5072968;28;20447;-64
2020/12/29 06:49:54;;;;;;;5.28;1.00;;;;;;;5.62;100.00;99030.56;5072341;28;20033;-64
2020/12/29 06:52:25;;;;;;;10.07;1.30;;;;;;;5.59;100.00;99030.25;5072134;28;20044;-64
2020/12/29 06:54:57;;;;;;;6.35;0.73;;;;;;;5.57;100.00;99044.06;5072189;28;20070;-65
2020/12/29 06:57:46;;;;;;;6.90;1.98;;;;;;;5.55;100.00;99046.16;5072094;28;20447;-63
2020/12/29 07:00:11;;;;;;;9.02;1.50;;;;;;;5.54;100.00;99039.13;5071889;28;20036;-64
2020/12/29 07:02:39;;;;;;;12.48;2.00;;;;;;;5.53;100.00;99040.19;5072026;28;20036;-64
2020/12/29 07:05:12;;;;;;;6.78;1.27;;;;;;;5.52;100.00;99035.03;5071983;28;20044;-65
2020/12/29 07:08:00;;;;;;;7.25;1.23;;;;;;;5.48;100.00;99033.91;5071853;28;20393;-64
2020/12/29 07:10:46;;;;;;;10.00;2.47;;;;;;;5.46;100.00;99036.88;5055369;28;20103;-64
2020/12/29 07:13:11;;;;;;;10.70;2.10;;;;;;;5.44;100.00;99044.44;5071708;28;20036;-64
2020/12/29 07:15:55;;;;;;;12.65;1.73;;;;;;;5.40;100.00;99051.44;5071757;28;20037;-65
2020/12/29 07:18:23;;;;;;;8.75;1.38;;;;;;;5.39;100.00;99057.91;5071605;28;20040;-64
2020/12/29 07:20:50;;;;;;;9.13;1.30;;;;;;;5.39;100.00;99063.34;5053524;28;20470;-63
2020/12/29 07:23:20;;;;;;;5.93;1.25;;;;;;;5.39;100.00;99060.63;5071572;28;20062;-64
2020/12/29 07:25:48;;;;;;;13.13;2.00;;;;;;;5.39;100.00;99068.75;5070762;28;20080;-64
2020/12/29 07:28:15;;;;;;;9.45;1.92;;;;;;;5.39;100.00;99074.97;5071493;28;20039;-65
2020/12/29 07:30:41;;;;;;;12.48;1.98;;;;;;;5.43;100.00;99080.69;5071447;28;20028;-64
2020/12/29 07:33:07;;;;;;;8.80;2.00;;;;;;;5.46;100.00;99091.03;5036582;28;20114;-64
2020/12/29 07:35:35;;;;;;;6.55;1.48;;;;;;;5.48;100.00;99099.72;5053534;28;20075;-64
2020/12/29 07:38:12;;;;;;;7.55;1.40;;;;;;;5.53;100.00;99102.47;5071395;28;20486;-64
2020/12/29 07:40:38;;;;;;;13.52;1.90;;;;;;;5.58;100.00;99094.44;5071223;28;20051;-64
2020/12/29 07:43:05;;;;;;;7.38;1.73;;;;;;;5.62;100.00;99092.03;5071268;28;20041;-64
2020/12/29 07:45:30;;;;;;;7.25;1.77;;;;;;;5.63;100.00;99097.19;5071226;28;20040;-63
2020/12/29 07:47:59;;;;;;;13.30;1.75;;;;;;;5.65;100.00;99105.88;5071014;28;20036;-64
2020/12/29 07:50:25;;;;;;;9.18;2.50;;;;;;;5.65;100.00;99103.16;5071110;28;20039;-64
2020/12/29 07:53:03;;;;;;;11.27;2.22;;;;;;;5.64;100.00;99109.66;5071184;28;20060;-64
2020/12/29 07:55:28;;;;;;;11.05;1.20;;;;;;;5.63;100.00;99110.72;5071103;28;20047;-64
2020/12/29 07:57:55;;;;;;;4.15;1.15;;;;;;;5.63;100.00;99118.84;5070959;28;20033;-64
2020/12/29 08:00:21;;;;;;;9.52;1.25;;;;;;;5.63;100.00;99123.44;5070994;28;20136;-63
2020/12/29 08:02:53;;;;;;;10.30;1.38;;;;;;;5.61;100.00;99118.28;5070985;28;20131;-64
2020/12/29 08:05:23;;;;;;;4.15;1.02;;;;;;;5.57;100.00;99128.00;5070987;28;20521;-64
2020/12/29 08:07:56;;;;;;;3.38;0.73;;;;;;;5.56;100.00;99129.06;5071119;28;20127;-65
2020/12/29 08:10:27;;;;;;;5.47;0.65;;;;;;;5.55;100.00;99137.41;5052937;28;20043;-63
2020/12/29 08:13:07;;;;;;;4.10;0.70;;;;;;;5.56;100.00;99149.91;5070818;28;20040;-63
2020/12/29 08:15:34;;;;;;;4.95;1.40;;;;;;;5.54;100.00;99150.13;5071103;28;20039;-65
2020/12/29 08:18:07;;;;;;;2.58;0.50;;;;;;;5.51;100.00;99147.94;5070896;28;20192;-64
2020/12/29 08:20:40;;;;;;;3.40;0.85;;;;;;;5.50;100.00;99146.28;5070751;28;20037;-64
2020/12/29 08:23:05;;;;;;;5.13;1.33;;;;;;;5.51;100.00;99156.06;5070767;28;20040;-64
2020/12/29 08:25:32;;;;;;;8.15;1.67;;;;;;;5.51;100.00;99166.88;5070345;28;20059;-65
2020/12/29 08:28:03;;;;;;;4.88;0.90;;;;;;;5.53;100.00;99172.06;5070425;28;20474;-64
2020/12/29 08:30:30;;;;;;;4.78;0.90;;;;;;;5.52;100.00;99173.94;5070711;28;20152;-64
2020/12/29 08:32:57;;;;;;;6.60;0.95;;;;;;;5.54;100.00;99173.69;5070718;28;20048;-64
2020/12/29 08:35:23;;;;;;;9.30;1.40;;;;;;;5.53;100.00;99172.06;5071118;28;20118;-64
2020/12/29 08:38:15;;;;;;;11.27;1.42;;;;;;;5.54;100.00;99174.50;5074666;28;20039;-64
2020/12/29 08:40:47;;;;;;;8.55;1.20;;;;;;;5.56;100.00;99188.63;5036547;28;20048;-65
2020/12/29 08:43:15;;;;;;;7.05;0.85;;;;;;;5.57;100.00;99194.88;5074996;28;20047;-64
2020/12/29 08:45:41;;;;;;;4.60;0.95;;;;;;;5.58;100.00;99196.50;5074618;28;20146;-64
2020/12/29 08:48:07;;;;;;;3.83;0.73;;;;;;;5.60;100.00;99195.19;5074603;28;20047;-64
2020/12/29 08:50:34;;;;;;;7.43;1.17;;;;;;;5.63;100.00;99200.09;5074591;28;20040;-64
2020/12/29 08:53:07;;;;;;;13.63;1.13;;;;;;;5.66;100.00;99210.44;5074427;28;20039;-63
2020/12/29 08:55:34;;;;;;;5.22;1.45;;;;;;;5.69;100.00;99219.94;5074509;28;20028;-65
2020/12/29 08:58:00;;;;;;;5.18;0.90;;;;;;;5.69;100.00;99226.16;5074317;28;20500;-65
2020/12/29 09:00:27;;;;;;;7.95;1.77;;;;;;;5.71;100.00;99239.47;5074206;28;20131;-65
2020/12/29 09:02:53;;;;;;;9.55;1.80;;;;;;;5.72;100.00;99236.50;5074154;28;20036;-63
2020/12/29 09:05:27;;;;;;;6.65;1.10;;;;;;;5.73;100.00;99246.28;5074302;28;20041;-64
2020/12/29 09:07:54;;;;;;;6.57;1.35;;;;;;;5.75;100.00;99246.88;5056127;28;20044;-64
2020/12/29 09:10:20;;;;;;;5.43;1.10;;;;;;;5.78;100.00;99247.44;5074135;28;20075;-64
2020/12/29 09:12:46;;;;;;;9.10;1.42;;;;;;;5.80;100.00;99253.41;5074109;28;20398;-64
2020/12/29 09:15:24;;;;;;;5.53;1.95;;;;;;;5.80;100.00;99258.81;5073992;28;20044;-64
2020/12/29 09:17:58;;;;;;;5.05;1.52;;;;;;;5.86;100.00;99260.53;5074151;28;20045;-65
2020/12/29 09:20:32;;;;;;;6.68;2.15;;;;;;;5.88;100.00;99267.34;5073928;28;20067;-64
2020/12/29 09:22:58;;;;;;;7.78;2.17;;;;;;;5.91;100.00;99266.06;5073957;28;20037;-64
2020/12/29 09:25:39;;;;;;;7.07;1.90;;;;;;;5.93;100.00;99274.75;5073757;28;20048;-64
2020/12/29 09:28:19;;;;;;;5.88;1.38;;;;;;;5.98;100.00;99285.66;5073899;28;20036;-64
2020/12/29 09:31:05;;;;;;;6.50;1.40;;;;;;;5.98;100.00;99294.63;5073863;28;20039;-63
2020/12/29 09:33:32;;;;;;;6.97;1.25;;;;;;;6.02;100.00;99295.75;5074149;28;20040;-65
2020/12/29 09:36:02;;;;;;;3.20;1.42;;;;;;;6.03;100.00;99307.41;5073638;28;20433;-65
2020/12/29 09:38:28;;;;;;;4.90;1.10;;;;;;;6.05;100.00;99316.09;5073611;28;20038;-64
2020/12/29 09:40:54;;;;;;;3.03;1.23;;;;;;;6.08;100.00;99314.81;5073608;28;20040;-66
2020/12/29 09:43:21;;;;;;;3.05;1.70;;;;;;;6.08;100.00;99321.03;5073505;28;20153;-63
2020/12/29 09:45:48;;;;;;;2.88;0.90;;;;;;;6.10;100.00;99324.31;5073553;28;20119;-65
2020/12/29 09:48:15;;;;;;;4.78;1.30;;;;;;;6.09;100.00;99333.53;5072656;28;20052;-65
2020/12/29 09:50:41;;;;;;;6.47;1.40;;;;;;;6.12;100.00;99343.03;5073339;28;20040;-64
2020/12/29 09:53:07;;;;;;;4.35;1.08;;;;;;;6.13;100.00;99350.91;5073357;28;20044;-66
2020/12/29 09:55:33;;;;;;;7.28;1.20;;;;;;;6.17;100.00;99357.47;5073303;28;20040;-63
2020/12/29 09:57:58;;;;;;;3.10;1.02;;;;;;;6.19;100.00;99355.34;5073427;28;20028;-66
2020/12/29 10:00:24;;;;;;;3.95;1.00;;;;;;;6.22;100.00;99362.97;5073087;28;20041;-64
2020/12/29 10:02:50;;;;;;;4.53;1.58;;;;;;;6.25;100.00;99361.66;5073710;28;20465;-63
2020/12/29 10:05:16;;;;;;;4.25;1.10;;;;;;;6.27;100.00;99379.31;5073232;28;20371;-64
2020/12/29 10:07:46;;;;;;;2.72;0.95;;;;;;;6.28;100.00;99375.53;5073077;28;20094;-64
2020/12/29 10:10:12;;;;;;;5.07;1.85;;;;;;;6.32;100.00;99386.69;5073120;28;20135;-64
2020/12/29 10:12:37;;;;;;;7.97;1.42;;;;;;;6.40;100.00;99393.56;5073111;28;20119;-65
2020/12/29 10:15:05;;;;;;;4.78;1.38;;;;;;;6.45;100.00;99386.34;5072935;28;20441;-64
2020/12/29 10:17:31;;;;;;;6.45;1.52;;;;;;;6.55;100.00;99402.72;5073025;28;20036;-65
2020/12/29 10:19:57;;;;;;;8.35;1.55;;;;;;;6.64;100.00;99401.25;5072661;28;20501;-66
2020/12/29 10:22:23;;;;;;;5.80;1.70;;;;;;;6.76;100.00;99408.41;5072893;28;20049;-65
2020/12/29 10:24:48;;;;;;;6.22;1.95;;;;;;;6.83;100.00;99409.88;5072646;28;20082;-64
2020/12/29 10:27:14;;;;;;;6.05;1.55;;;;;;;6.84;100.00;99419.66;5072817;28;20036;-64
2020/12/29 10:29:39;;;;;;;4.38;1.30;;;;;;;6.83;100.00;99426.16;5072678;28;20033;-63
2020/12/29 10:32:05;;;;;;;3.13;1.27;;;;;;;6.86;100.00;99430.25;5072635;28;20071;-65
2020/12/29 10:34:31;;;;;;;4.47;1.65;;;;;;;6.88;100.00;99445.22;5072525;28;20125;-64
2020/12/29 10:36:56;;;;;;;7.40;1.38;;;;;;;6.91;100.00;99441.16;5072584;28;20040;-64
2020/12/29 10:39:22;;;;;;;5.35;1.63;;;;;;;6.94;100.00;99444.22;5072348;28;20051;-64
2020/12/29 10:41:47;;;;;;;5.00;1.63;;;;;;;6.91;100.00;99444.69;5072427;28;20045;-65
2020/12/29 10:44:13;;;;;;;4.60;1.50;;;;;;;6.86;100.00;99447.34;5072405;28;20041;-65
2020/12/29 10:46:39;;;;;;;5.40;2.10;;;;;;;6.84;100.00;99454.94;5072423;28;20036;-64
2020/12/29 10:49:05;;;;;;;5.53;1.52;;;;;;;6.81;100.00;99444.59;5072105;28;20402;-64
2020/12/29 10:51:31;;;;;;;5.82;1.10;;;;;;;6.86;100.00;99441.94;5072286;28;20498;-65
2020/12/29 10:53:57;;;;;;;3.42;1.58;;;;;;;6.86;100.00;99447.34;5054369;28;20040;-64
2020/12/29 10:56:22;;;;;;;3.10;1.25;;;;;;;6.90;100.00;99445.78;5072161;28;20065;-63
2020/12/29 10:58:48;;;;;;;3.25;1.10;;;;;;;6.92;100.00;99450.94;5071515;28;20036;-64
2020/12/29 11:01:20;;;;;;;2.58;1.15;;;;;;;7.07;100.00;99453.03;5071596;28;20387;-64
2020/12/29 11:03:46;;;;;;;1.75;1.08;;;;;;;7.23;100.00;99461.09;5072029;28;20490;-64
2020/12/29 11:06:16;;;;;;;4.07;1.02;;;;;;;7.19;100.00;99468.13;5071940;28;20032;-64
2020/12/29 11:08:43;;;;;;;6.40;0.98;;;;;;;7.05;100.00;99460.63;5071814;28;20036;-64
2020/12/29 11:11:09;;;;;;;4.85;1.02;;;;;;;6.78;100.00;99461.38;5072044;28;20029;-64
2020/12/29 11:13:34;;;;;;;3.80;1.17;;;;;;;6.64;100.00;99465.53;5071718;28;20043;-64
2020/12/29 11:16:00;;;;;;;3.08;0.80;;;;;;;6.52;100.00;99468.34;5071774;28;20032;-63
2020/12/29 11:18:26;;;;;;;3.55;1.20;;;;;;;6.48;100.00;99467.19;5071573;28;20055;-63
2020/12/29 11:20:53;;;;;;;4.18;1.02;;;;;;;6.41;100.00;99466.53;5071620;28;20064;-64
2020/12/29 11:23:18;;;;;;;5.93;1.38;;;;;;;6.39;100.00;99476.81;5071619;28;20067;-63
2020/12/29 11:25:44;;;;;;;1.90;0.82;;;;;;;6.40;100.00;99474.91;5071199;28;20502;-64
2020/12/29 11:28:10;;;;;;;2.72;0.90;;;;;;;6.47;100.00;99481.00;5071283;28;20057;-64
2020/12/29 11:30:36;;;;;;;2.90;0.75;;;;;;;6.53;100.00;99480.00;5071457;28;20386;-64
2020/12/29 11:33:02;;;;;;;7.35;1.33;;;;;;;6.75;100.00;99499.03;5071459;28;20040;-63